createdAt,value
2022-10-23T10:16:30.885Z,100309.60
2022-10-23T10:18:18.413Z,100308.00
2022-10-23T10:20:07.325Z,100306.80
2022-10-23T10:22:08.712Z,100301.00
2022-10-23T10:23:50.410Z,100300.20
2022-10-23T10:25:59.360Z,100298.80
2022-10-23T10:27:46.353Z,100298.40
2022-10-23T10:29:52.154Z,100296.00
2022-10-23T10:32:12.636Z,100290.00
2022-10-23T10:34:17.333Z,100290.40
2022-10-23T10:36:13.234Z,100283.40
2022-10-23T10:38:21.404Z,100279.80
2022-10-23T10:40:11.323Z,100273.60
2022-10-23T10:42:16.981Z,100271.20
2022-10-23T10:43:54.802Z,100272.00
2022-10-23T10:45:51.227Z,100273.60
2022-10-23T10:47:39.370Z,100271.40
2022-10-23T10:49:45.246Z,100266.60
2022-10-23T10:51:52.580Z,100262.40
2022-10-23T10:54:27.422Z,100256.60
2022-10-23T10:56:04.042Z,100259.20
2022-10-23T10:57:43.087Z,100255.80
2022-10-23T10:59:42.543Z,100258.60
2022-10-23T11:01:27.684Z,100256.60
2022-10-23T11:03:09.617Z,100255.00
2022-10-23T11:04:52.501Z,100253.40
2022-10-23T11:06:30.801Z,100245.60
2022-10-23T11:08:34.256Z,100242.60
2022-10-23T11:10:19.408Z,100237.00
2022-10-23T11:11:51.684Z,100236.20
2022-10-23T11:13:35.632Z,100232.20
2022-10-23T11:15:18.237Z,100228.60
2022-10-23T11:17:04.916Z,100227.00
2022-10-23T11:18:45.139Z,100218.00
2022-10-23T11:20:43.333Z,100213.80
2022-10-23T11:22:38.321Z,100207.80
2022-10-23T11:24:55.826Z,100199.40
2022-10-23T11:26:57.805Z,100200.00
2022-10-23T11:28:29.547Z,100192.80
2022-10-23T11:30:36.681Z,100193.20
2022-10-23T11:32:20.170Z,100192.80
2022-10-23T11:34:23.331Z,100189.00
2022-10-23T11:35:58.174Z,100174.20
2022-10-23T11:37:30.659Z,100174.40
2022-10-23T11:39:30.669Z,100168.60
2022-10-23T11:41:33.837Z,100159.60
2022-10-23T11:43:07.827Z,100154.40
2022-10-23T11:44:41.687Z,100156.40
2022-10-23T11:46:22.157Z,100148.00
2022-10-23T11:48:02.789Z,100143.80
2022-10-23T11:49:34.590Z,100138.60
2022-10-23T11:51:26.112Z,100134.20
2022-10-23T11:53:23.724Z,100139.60
2022-10-23T11:55:20.296Z,100137.00
2022-10-23T11:57:10.305Z,100142.40
2022-10-23T11:58:57.396Z,100145.40
2022-10-23T12:00:31.457Z,100138.60
2022-10-23T12:02:27.659Z,100141.80
2022-10-23T12:04:04.525Z,100134.80
2022-10-23T12:05:42.230Z,100130.80
2022-10-23T12:07:38.027Z,100139.40
2022-10-23T12:09:36.171Z,100139.20
2022-10-23T12:11:27.892Z,100140.40
2022-10-23T12:13:26.228Z,100138.20
2022-10-23T12:15:16.269Z,100136.00
2022-10-23T12:16:48.017Z,100138.80
2022-10-23T12:18:19.861Z,100138.00
2022-10-23T12:20:04.581Z,100132.40
2022-10-23T12:21:38.887Z,100133.60
2022-10-23T12:23:31.038Z,100127.60
2022-10-23T13:45:19.824Z,100009.20
2022-10-23T13:46:52.301Z,100003.20
2022-10-23T13:48:24.291Z,99995.40
2022-10-23T13:49:56.189Z,99984.80
2022-10-23T13:51:31.332Z,99985.60
2022-10-23T13:53:05.272Z,99983.20
2022-10-23T13:54:36.998Z,99973.20
2022-10-23T13:56:12.934Z,99969.40
2022-10-23T13:57:45.017Z,99972.60
2022-10-23T13:59:18.350Z,99976.60
2022-10-23T14:00:51.167Z,99981.40
2022-10-23T14:02:24.904Z,99981.40
2022-10-23T14:03:58.691Z,99986.40
2022-10-23T14:05:31.458Z,99980.60
2022-10-23T14:07:03.341Z,99983.00
2022-10-23T14:08:35.177Z,99980.20
2022-10-23T14:10:07.282Z,99979.00
2022-10-23T14:11:40.117Z,99979.20
2022-10-23T14:13:12.133Z,99972.20
2022-10-23T14:14:44.822Z,99974.60
2022-10-23T14:16:20.757Z,99972.60
2022-10-23T14:17:58.987Z,99971.40
2022-10-23T14:19:34.456Z,99967.40
2022-10-23T14:21:09.335Z,99966.80
2022-10-23T14:22:41.280Z,99964.40
2022-10-23T14:24:15.549Z,99965.60
2022-10-23T14:25:47.596Z,99966.20
2022-10-23T14:27:19.360Z,99961.00
2022-10-23T14:28:56.908Z,99961.20
2022-10-23T14:30:30.349Z,99963.60
2022-10-23T14:32:02.116Z,99967.20
2022-10-23T14:33:33.949Z,99970.40
2022-10-23T14:35:06.770Z,99970.80
2022-10-23T14:36:49.833Z,99969.20
2022-10-23T14:38:24.027Z,99965.00
2022-10-23T14:39:55.722Z,99965.40
2022-10-23T14:41:28.829Z,99960.60
2022-10-23T14:43:00.672Z,99952.80
2022-10-23T14:44:32.535Z,99949.60
2022-10-23T14:46:17.919Z,99945.80
2022-10-23T14:47:49.746Z,99940.00
2022-10-23T14:49:21.726Z,99933.60
2022-10-23T14:50:53.769Z,99933.00
2022-10-23T14:52:25.837Z,99927.60
2022-10-23T14:54:02.274Z,99923.00
2022-10-23T14:55:34.042Z,99922.20
2022-10-23T14:57:07.731Z,99920.40
2022-10-23T14:58:40.122Z,99918.20
2022-10-23T15:00:12.927Z,99918.80
2022-10-23T15:01:48.266Z,99913.60
2022-10-23T15:03:21.261Z,99913.60
2022-10-23T15:04:52.994Z,99912.60
2022-10-23T15:06:25.367Z,99912.00
2022-10-23T15:07:58.559Z,99906.60
2022-10-23T15:09:32.803Z,99906.20
2022-10-23T15:11:07.750Z,99904.60
2022-10-23T15:12:43.063Z,99898.60
2022-10-23T15:14:15.117Z,99895.80
2022-10-23T15:15:48.707Z,99892.60
2022-10-23T15:17:20.473Z,99895.00
2022-10-23T15:18:52.485Z,99892.80
2022-10-23T15:20:24.242Z,99897.80
2022-10-23T15:21:56.036Z,99898.60
2022-10-23T15:23:27.876Z,99895.80
2022-10-23T15:24:59.693Z,99896.80
2022-10-23T15:26:31.667Z,99900.60
2022-10-23T15:28:03.420Z,99903.40
2022-10-23T15:29:35.195Z,99910.00
2022-10-23T15:31:07.013Z,99923.00
2022-10-23T15:32:38.992Z,99936.80
2022-10-23T15:34:24.756Z,99946.40
2022-10-23T15:35:57.133Z,99959.20
2022-10-23T15:37:28.891Z,99967.00
2022-10-23T15:39:01.131Z,99974.60
2022-10-23T15:40:33.050Z,99972.40
2022-10-23T15:42:06.774Z,99957.60
2022-10-23T15:44:55.711Z,99910.80
2022-10-23T15:46:28.670Z,99902.00
2022-10-23T15:48:00.538Z,99907.80
2022-10-23T15:49:32.730Z,99914.60
2022-10-23T15:51:04.867Z,99935.80
2022-10-23T15:52:36.704Z,99927.80
2022-10-23T15:54:16.637Z,99926.80
2022-10-23T15:55:48.767Z,99935.60
2022-10-23T15:57:20.626Z,99945.80
2022-10-23T15:58:52.481Z,99944.40
2022-10-23T16:00:27.513Z,99957.00
2022-10-23T16:01:59.763Z,99950.60
2022-10-23T16:03:37.461Z,99950.40
2022-10-23T16:05:12.514Z,99952.00
2022-10-23T16:06:45.012Z,99952.20
2022-10-23T16:08:16.847Z,99951.60
2022-10-23T16:09:48.920Z,99954.00
2022-10-23T16:11:25.322Z,99948.80
2022-10-23T16:12:57.128Z,99946.20
2022-10-23T16:14:31.722Z,99947.00
2022-10-23T16:16:04.243Z,99953.00
2022-10-23T16:17:36.040Z,99951.40
2022-10-23T16:19:09.823Z,99952.20
2022-10-23T16:20:41.980Z,99954.60
2022-10-23T16:22:15.044Z,99959.60
2022-10-23T16:23:47.535Z,99957.00
2022-10-23T16:25:19.588Z,99959.40
2022-10-23T16:26:53.390Z,99958.20
2022-10-23T16:28:25.349Z,99965.80
2022-10-23T16:29:57.169Z,99962.20
2022-10-23T16:31:35.630Z,99964.80
2022-10-23T16:33:07.461Z,99975.40
2022-10-23T16:34:39.505Z,99965.60
2022-10-23T16:36:11.413Z,99968.20
2022-10-23T16:38:08.788Z,99963.00
2022-10-23T16:39:40.686Z,99958.80
2022-10-23T16:41:31.698Z,99962.20
2022-10-23T16:43:06.205Z,99964.80
2022-10-23T16:44:41.794Z,99970.40
2022-10-23T16:46:18.443Z,99971.40
2022-10-23T16:47:50.386Z,99962.80
2022-10-23T16:49:25.638Z,99972.60
2022-10-23T16:50:58.476Z,99973.60
2022-10-23T16:52:30.451Z,99973.60
2022-10-23T16:54:03.151Z,99972.00
2022-10-23T16:55:35.332Z,99970.20
2022-10-23T16:57:07.533Z,99978.60
2022-10-23T16:58:42.277Z,99980.20
2022-10-23T17:00:15.775Z,99977.60
2022-10-23T17:01:47.853Z,99971.60
2022-10-23T17:03:20.033Z,99973.60
2022-10-23T17:04:53.917Z,99971.60
2022-10-23T17:06:30.830Z,99984.80
2022-10-23T17:08:02.577Z,99995.00
2022-10-23T17:09:35.769Z,99999.40
2022-10-23T17:11:13.039Z,100011.60
2022-10-23T17:12:45.404Z,100016.80
2022-10-23T17:14:21.057Z,100027.40
2022-10-23T17:16:07.484Z,100042.20
2022-10-23T17:17:39.391Z,100051.80
2022-10-23T17:19:45.076Z,100052.20
2022-10-23T17:21:20.522Z,100059.80
2022-10-23T17:22:54.355Z,100055.40
2022-10-23T17:24:26.761Z,100044.40
2022-10-23T17:26:05.190Z,100007.00
2022-10-23T17:27:37.026Z,99983.20
2022-10-23T17:29:15.143Z,99975.20
2022-10-23T17:30:49.102Z,99956.60
2022-10-23T17:33:58.498Z,99929.60
2022-10-23T17:35:31.582Z,99921.80
2022-10-23T17:37:03.572Z,99926.20
2022-10-23T17:38:38.535Z,99929.20
2022-10-23T17:40:11.098Z,99929.80
2022-10-23T17:41:44.417Z,99931.80
2022-10-23T17:43:16.437Z,99941.00
2022-10-23T17:44:48.243Z,99944.60
2022-10-23T17:46:20.370Z,99949.00
2022-10-23T17:47:53.295Z,99945.20
2022-10-23T17:49:26.590Z,99933.20
2022-10-23T17:51:08.297Z,99941.40
2022-10-23T17:52:40.478Z,99940.40
2022-10-23T17:54:13.074Z,99924.40
2022-10-23T17:55:44.889Z,99920.60
2022-10-23T17:57:16.720Z,99917.40
2022-10-23T17:58:52.850Z,99920.60
2022-10-23T18:00:24.659Z,99917.20
2022-10-23T18:01:58.797Z,99912.60
2022-10-23T18:03:31.154Z,99912.20
2022-10-23T18:05:03.268Z,99910.40
2022-10-23T18:06:45.185Z,99918.00
2022-10-23T18:08:17.216Z,99927.80
2022-10-23T18:09:48.918Z,99931.80
2022-10-23T18:11:31.503Z,99937.00
2022-10-23T18:13:03.272Z,99939.00
2022-10-23T18:14:37.375Z,99935.60
2022-10-23T18:16:11.969Z,99938.80
2022-10-23T18:17:44.005Z,99942.80
2022-10-23T18:19:18.253Z,99943.00
2022-10-23T18:20:50.140Z,99947.80
2022-10-23T18:22:21.947Z,99939.40
2022-10-23T18:23:54.097Z,99941.20
2022-10-23T18:25:25.887Z,99939.00
2022-10-23T18:26:57.842Z,99935.60
2022-10-23T18:28:31.580Z,99928.00
2022-10-23T18:30:04.617Z,99922.80
2022-10-23T18:31:38.243Z,99920.60
2022-10-23T18:33:10.150Z,99922.40
2022-10-23T18:34:42.168Z,99924.80
2022-10-23T18:36:27.234Z,99916.60
2022-10-23T18:38:04.559Z,99909.40
2022-10-23T18:39:36.466Z,99902.80
2022-10-23T18:41:08.414Z,99896.40
2022-10-23T18:42:40.293Z,99893.60
2022-10-23T18:44:18.009Z,99898.60
2022-10-23T18:45:50.155Z,99896.20
2022-10-23T18:47:23.337Z,99889.60
2022-10-23T18:48:56.253Z,99882.40
2022-10-23T18:50:28.583Z,99880.80
2022-10-23T18:52:00.707Z,99881.80
2022-10-23T18:53:32.800Z,99880.40
2022-10-23T18:55:08.203Z,99879.80
2022-10-23T18:56:39.985Z,99874.60
2022-10-23T18:58:11.804Z,99879.80
2022-10-23T18:59:43.574Z,99884.40
2022-10-23T19:01:16.833Z,99878.40
2022-10-23T19:02:52.231Z,99877.40
2022-10-23T19:04:24.703Z,99880.20
2022-10-23T19:06:02.591Z,99882.20
2022-10-23T19:07:35.267Z,99876.20
2022-10-23T19:09:10.167Z,99876.20
2022-10-23T19:10:45.301Z,99881.20
2022-10-23T19:12:18.385Z,99875.20
2022-10-23T19:13:50.364Z,99874.20
2022-10-23T19:15:22.366Z,99876.80
2022-10-23T19:17:32.794Z,99875.80
2022-10-23T19:19:16.892Z,99870.00
2022-10-23T19:20:48.622Z,99865.80
2022-10-23T19:22:22.061Z,99860.00
2022-10-23T19:23:56.004Z,99857.60
2022-10-23T19:25:33.304Z,99864.20
2022-10-23T19:27:06.542Z,99863.40
2022-10-23T19:28:42.872Z,99862.80
2022-10-23T19:30:20.577Z,99858.60
2022-10-23T19:31:54.992Z,99860.60
2022-10-23T19:33:29.976Z,99851.20
2022-10-23T19:35:01.751Z,99849.40
2022-10-23T19:36:33.491Z,99846.60
2022-10-23T19:38:05.253Z,99849.40
2022-10-23T19:39:37.131Z,99844.00
2022-10-23T19:41:09.421Z,99846.80
2022-10-23T19:42:43.205Z,99861.00
2022-10-23T19:44:15.046Z,99850.80
2022-10-23T19:45:47.259Z,99841.60
2022-10-23T19:47:19.004Z,99838.80
2022-10-23T19:48:50.921Z,99842.20
2022-10-23T19:50:22.712Z,99843.40
2022-10-23T19:54:50.851Z,99832.80
2022-10-23T19:56:22.330Z,99847.40
2022-10-23T19:57:54.894Z,99850.00
2022-10-23T19:59:26.068Z,99850.00
2022-10-23T20:00:57.392Z,99852.20
2022-10-23T20:02:28.867Z,99843.40
2022-10-23T20:04:00.113Z,99838.40
2022-10-23T20:05:34.806Z,99831.80
2022-10-23T20:07:05.900Z,99843.40
2022-10-23T20:08:37.606Z,99835.00
2022-10-23T20:10:09.929Z,99841.00
2022-10-23T20:11:42.759Z,99841.00
2022-10-23T20:13:20.275Z,99847.40
2022-10-23T20:14:54.292Z,99838.00
2022-10-23T20:16:31.163Z,99841.60
2022-10-23T20:18:02.585Z,99844.00
2022-10-23T20:19:34.265Z,99839.20
2022-10-23T20:21:05.485Z,99836.20
2022-10-23T20:22:40.541Z,99834.60
2022-10-23T20:24:17.345Z,99845.20
2022-10-23T20:25:48.517Z,99842.60
2022-10-23T20:27:19.677Z,99842.80
2022-10-23T20:28:55.344Z,99850.60
2022-10-23T20:30:26.469Z,99849.00
2022-10-23T20:31:57.640Z,99850.00
2022-10-23T20:33:28.702Z,99842.40
2022-10-23T20:35:00.152Z,99843.20
2022-10-23T20:36:41.119Z,99856.80
2022-10-23T20:38:19.525Z,99859.80
2022-10-23T20:39:50.736Z,99869.60
2022-10-23T20:41:26.387Z,99874.80
2022-10-23T20:42:57.419Z,99872.40
2022-10-23T20:44:29.845Z,99865.80
2022-10-23T20:46:06.663Z,99878.00
2022-10-23T20:47:37.680Z,99896.40
2022-10-23T20:49:10.406Z,99912.20
2022-10-23T20:50:41.521Z,99915.80
2022-10-23T20:52:12.740Z,99920.00
2022-10-23T20:53:45.429Z,99946.00
2022-10-23T20:55:17.490Z,99943.00
2022-10-23T20:56:48.643Z,99958.60
2022-10-23T20:58:19.707Z,99963.40
2022-10-23T20:59:52.649Z,99958.80
2022-10-23T21:01:25.620Z,99959.40
2022-10-23T21:02:57.283Z,99965.40
2022-10-23T21:04:28.786Z,99975.00
2022-10-23T21:06:11.021Z,99994.60
2022-10-23T21:07:43.179Z,99994.80
2022-10-23T21:09:14.399Z,99994.00
2022-10-23T21:10:46.717Z,99983.60
2022-10-23T21:12:17.836Z,99975.60
2022-10-23T21:13:50.828Z,99972.20
2022-10-23T21:15:22.029Z,99974.00
2022-10-23T21:16:53.120Z,99974.60
2022-10-23T21:20:05.600Z,99933.80
2022-10-23T21:21:36.862Z,99925.00
2022-10-23T21:23:08.522Z,99941.20
2022-10-23T21:24:39.588Z,99928.20
2022-10-23T21:26:11.097Z,99923.40
2022-10-23T21:27:42.431Z,99939.00
2022-10-23T21:29:18.440Z,99940.00
2022-10-23T21:30:50.601Z,99934.60
2022-10-23T21:32:21.769Z,99925.40
2022-10-23T21:33:53.641Z,99927.80
2022-10-23T21:35:26.577Z,99928.80
2022-10-23T21:37:16.821Z,99937.20
2022-10-23T21:39:00.859Z,99944.00
2022-10-23T21:40:33.487Z,99940.20
2022-10-23T21:42:04.759Z,99942.80
2022-10-23T21:43:35.869Z,99944.20
2022-10-23T21:45:07.758Z,99943.80
2022-10-23T21:46:40.913Z,99947.60
2022-10-23T21:48:11.972Z,99953.20
2022-10-23T21:49:43.405Z,99946.40
2022-10-23T21:51:22.741Z,99952.60
2022-10-23T21:52:54.236Z,99951.20
2022-10-23T21:54:25.816Z,99953.80
2022-10-23T21:56:04.583Z,99944.20
2022-10-23T21:57:35.659Z,99949.00
2022-10-23T21:59:12.974Z,99949.80
2022-10-23T22:00:44.119Z,99946.60
2022-10-23T22:02:15.358Z,99949.40
2022-10-23T22:03:47.155Z,99951.00
2022-10-23T22:05:22.824Z,99950.20
2022-10-23T22:06:53.922Z,99946.00
2022-10-23T22:08:25.153Z,99945.60
2022-10-23T22:09:56.246Z,99944.80
2022-10-23T22:11:28.117Z,99939.80
2022-10-23T22:12:59.312Z,99941.00
2022-10-23T22:14:30.340Z,99934.60
2022-10-23T22:16:03.740Z,99939.20
2022-10-23T22:17:34.772Z,99941.20
2022-10-23T22:20:48.166Z,99946.00
2022-10-23T22:22:19.216Z,99942.00
2022-10-23T22:23:53.934Z,99947.80
2022-10-23T22:25:25.036Z,99942.60
2022-10-23T22:26:56.803Z,99947.40
2022-10-23T22:28:27.880Z,99946.80
2022-10-23T22:30:02.941Z,99943.20
2022-10-23T22:31:36.216Z,99941.80
2022-10-23T22:33:07.229Z,99940.80
2022-10-23T22:34:52.397Z,99937.20
2022-10-23T22:36:25.289Z,99935.60
2022-10-23T22:37:56.434Z,99934.60
2022-10-23T22:56:00.693Z,99932.80
2022-10-23T22:57:31.826Z,99935.20
2022-10-23T22:59:03.756Z,99937.80
2022-10-23T23:00:34.883Z,99934.20
2022-10-23T23:02:07.527Z,99936.40
2022-10-23T23:03:38.710Z,99928.20
2022-10-23T23:05:11.797Z,99934.40
2022-10-23T23:06:44.822Z,99933.20
2022-10-23T23:08:15.828Z,99938.20
2022-10-23T23:09:46.999Z,99932.80
2022-10-23T23:11:21.192Z,99934.40
2022-10-23T23:12:52.341Z,99930.80
2022-10-23T23:14:24.507Z,99933.60
2022-10-23T23:15:56.205Z,99930.40
2022-10-23T23:17:27.300Z,99929.20
2022-10-23T23:19:04.089Z,99931.00
2022-10-23T23:20:35.256Z,99933.60
2022-10-23T23:22:06.695Z,99938.60
2022-10-23T23:23:38.121Z,99935.00
2022-10-23T23:25:09.350Z,99931.20
2022-10-23T23:26:40.676Z,99926.80
2022-10-23T23:28:14.999Z,99924.40
2022-10-23T23:29:46.029Z,99918.80
2022-10-23T23:31:23.150Z,99918.00
2022-10-23T23:32:54.228Z,99912.80
2022-10-23T23:34:25.535Z,99911.00
2022-10-23T23:35:56.844Z,99909.60
2022-10-23T23:37:28.268Z,99911.80
2022-10-23T23:38:59.938Z,99910.40
2022-10-23T23:40:31.074Z,99920.00
2022-10-23T23:42:02.490Z,99918.20
2022-10-23T23:43:33.546Z,99918.20
2022-10-23T23:45:14.372Z,99923.00
2022-10-23T23:46:46.211Z,99925.20
2022-10-23T23:48:17.481Z,99927.60
2022-10-23T23:49:48.580Z,99917.80
2022-10-23T23:51:24.275Z,99912.40
2022-10-23T23:52:55.425Z,99909.80
2022-10-23T23:54:27.400Z,99915.20
2022-10-23T23:55:59.286Z,99917.00
2022-10-23T23:57:30.923Z,99910.60
2022-10-23T23:59:02.053Z,99914.40
